Time;durP1;ratioP1;P1;durP2;ratioP2;P2;SDS_P1;SDS_P2;PMS_P1;PMS_P2;Temp;Humidity;BMP_temperature;BMP_pressure;BME280_temperature;BME280_humidity;BME280_pressure;Samples;Min_cycle;Max_cycle;Signal;HPM_P1;HPM_P2
2023/03/27 00:00:15;;;;;;;22.03;3.10;;;;;;;;;;5091855;28;20063;-85
2023/03/27 00:03:00;;;;;;;8.87;1.87;;;;;;;;;;5091749;28;20039;-87
2023/03/27 00:05:44;;;;;;;10.47;1.67;;;;;;;;;;5092265;28;20043;-85
2023/03/27 00:08:30;;;;;;;5.97;2.77;;;;;;;;;;5091132;28;20523;-85
2023/03/27 00:11:15;;;;;;;9.30;1.87;;;;;;;;;;5091823;28;20070;-85
2023/03/27 00:14:00;;;;;;;11.53;1.80;;;;;;;;;;5091686;28;20097;-85
2023/03/27 00:16:45;;;;;;;5.87;1.60;;;;;;;;;;5083224;28;20042;-85
2023/03/27 00:19:29;;;;;;;14.47;2.37;;;;;;;;;;5076425;28;20043;-85
2023/03/27 00:22:14;;;;;;;5.50;1.33;;;;;;;;;;5070997;28;20039;-85
2023/03/27 00:24:59;;;;;;;12.47;2.37;;;;;;;;;;5092589;28;20097;-85
2023/03/27 00:27:43;;;;;;;7.77;1.90;;;;;;;;;;5078689;28;20599;-85
2023/03/27 00:30:29;;;;;;;9.87;1.77;;;;;;;;;;5090517;28;20111;-87
2023/03/27 00:33:14;;;;;;;8.77;1.33;;;;;;;;;;5081962;28;20039;-86
2023/03/27 00:35:59;;;;;;;8.77;1.63;;;;;;;;;;5090848;28;20111;-85
2023/03/27 00:38:44;;;;;;;8.67;1.73;;;;;;;;;;5090735;28;20035;-85
2023/03/27 00:41:29;;;;;;;10.93;1.90;;;;;;;;;;5090824;28;20486;-87
2023/03/27 00:44:33;;;;;;;9.97;1.60;;;;;;;;;;5091903;28;20141;-85
2023/03/27 00:47:19;;;;;;;6.50;1.70;;;;;;;;;;5091092;28;20096;-85
2023/03/27 00:50:12;;;;;;;12.63;1.80;;;;;;;;;;5082624;28;20082;-86
2023/03/27 00:53:03;;;;;;;9.00;2.10;;;;;;;;;;5089582;28;20123;-85
2023/03/27 00:55:48;;;;;;;8.20;1.37;;;;;;;;;;5091390;28;20458;-85
2023/03/27 00:58:37;;;;;;;11.50;1.73;;;;;;;;;;5090302;28;20047;-86
2023/03/27 01:01:22;;;;;;;7.50;2.17;;;;;;;;;;5090613;28;20035;-85
2023/03/27 01:04:08;;;;;;;14.93;2.63;;;;;;;;;;5090689;28;20070;-85
2023/03/27 01:06:55;;;;;;;6.23;1.57;;;;;;;;;;5091304;28;20043;-85
2023/03/27 01:09:39;;;;;;;8.63;2.13;;;;;;;;;;5090954;28;20399;-85
2023/03/27 01:12:36;;;;;;;8.80;2.13;;;;;;;;;;5090708;28;20051;-85
2023/03/27 01:15:22;;;;;;;9.57;1.63;;;;;;;;;;5091586;28;20043;-85
2023/03/27 01:18:13;;;;;;;7.47;1.53;;;;;;;;;;5091468;28;20046;-85
2023/03/27 01:21:04;;;;;;;5.43;1.30;;;;;;;;;;5090394;28;20062;-85
2023/03/27 01:24:27;;;;;;;6.23;1.37;;;2.60;99.90;;;;;;5085804;28;20039;-85
2023/03/27 01:27:14;;;;;;;9.20;1.37;;;;;;;;;;5089182;28;20169;-86
2023/03/27 01:30:20;;;;;;;5.40;1.43;;;;;;;;;;5091814;28;20443;-86
2023/03/27 01:33:08;;;;;;;8.30;1.57;;;;;;;;;;5082698;28;20055;-85
2023/03/27 01:36:08;;;;;;;12.57;1.67;;;;;;;;;;5095199;28;20042;-85
2023/03/27 01:39:11;;;;;;;8.40;1.40;;;;;;;;;;5094933;28;20517;-86
2023/03/27 01:41:58;;;;;;;5.77;1.30;;;;;;;;;;5094092;28;20198;-85
2023/03/27 01:45:01;;;;;;;7.70;1.67;;;;;;;;;;5091272;28;20461;-85
2023/03/27 01:47:52;;;;;;;11.10;1.77;;;;;;;;;;5080988;28;20070;-86
2023/03/27 01:50:51;;;;;;;6.33;1.67;;;;;;;;;;5094002;28;20066;-88
2023/03/27 01:53:56;;;;;;;6.83;1.77;;;;;;;;;;5095166;28;20051;-86
2023/03/27 01:56:44;;;;;;;10.77;1.73;;;;;;;;;;5094721;28;20156;-86
2023/03/27 01:59:32;;;;;;;7.27;1.80;;;2.30;99.90;;;;;;5095135;28;20032;-85
2023/03/27 02:02:20;;;;;;;6.63;1.57;;;;;;;;;;5094229;28;20051;-85
2023/03/27 02:05:09;;;;;;;6.73;1.23;;;;;;;;;;5091224;28;20500;-86
2023/03/27 02:08:08;;;;;;;5.73;1.30;;;2.30;99.90;;;;;;5105705;28;20054;-86
2023/03/27 02:10:55;;;;;;;8.77;1.87;;;;;;;;;;5093333;28;20039;-86
2023/03/27 02:13:45;;;;;;;8.77;1.70;;;;;;;;;;5094813;28;20152;-87
2023/03/27 02:16:34;;;;;;;7.57;1.30;;;2.20;99.90;;;;;;5093730;28;20057;-86
2023/03/27 02:19:24;;;;;;;13.63;2.10;;;;;;;;;;5094889;28;20063;-85
2023/03/27 02:22:09;;;;;;;7.33;2.00;;;;;;;;;;5083753;28;20062;-86
2023/03/27 02:24:54;;;;;;;5.17;1.60;;;;;;;;;;5078628;28;20074;-85
2023/03/27 02:27:42;;;;;;;7.03;1.40;;;;;;;;;;5083023;28;20499;-86
2023/03/27 02:30:35;;;;;;;6.73;1.60;;;;;;;;;;5094553;28;20085;-85
2023/03/27 02:33:45;;;;;;;6.77;1.50;;;2.10;99.90;;;;;;5093610;28;20043;-86
2023/03/27 02:36:40;;;;;;;5.10;1.80;;;;;;;;;;5084832;28;20105;-85
2023/03/27 02:39:30;;;;;;;7.13;1.67;;;;;;;;;;5094474;28;20043;-86
2023/03/27 02:42:21;;;;;;;8.17;2.13;;;;;;;;;;5093322;28;20044;-85
2023/03/27 02:45:09;;;;;;;5.30;1.70;;;;;;;;;;5093706;28;20070;-85
2023/03/27 02:47:58;;;;;;;7.67;2.50;;;;;;;;;;5093811;28;20183;-85
2023/03/27 02:50:50;;;;;;;9.13;1.77;;;;;;;;;;5093012;28;20031;-85
2023/03/27 02:53:38;;;;;;;7.87;1.80;;;;;;;;;;5094136;28;20455;-87
2023/03/27 02:56:25;;;;;;;6.30;1.27;;;;;;;;;;5093220;28;20030;-85
2023/03/27 02:59:12;;;;;;;6.60;1.53;;;;;;;;;;5093451;28;20108;-85
2023/03/27 03:01:57;;;;;;;7.77;1.97;;;;;;;;;;5093541;28;20504;-85
2023/03/27 03:05:08;;;;;;;12.33;2.03;;;;;;;;;;5093773;28;20043;-85
2023/03/27 03:07:53;;;;;;;12.23;1.80;;;;;;;;;;5093306;28;20066;-85
2023/03/27 03:10:44;;;;;;;9.87;2.60;;;;;;;;;;5078597;28;20038;-85
2023/03/27 03:13:30;;;;;;;7.50;1.53;;;;;;;;;;5093863;28;20438;-85
2023/03/27 03:16:15;;;;;;;10.50;1.80;;;;;;;;;;5093622;28;20042;-85
2023/03/27 03:19:00;;;;;;;10.83;2.30;;;;;;;;;;5093128;28;20433;-85
2023/03/27 03:21:45;;;;;;;5.60;1.57;;;;;;;;;;5093493;28;20039;-85
2023/03/27 03:24:31;;;;;;;9.40;2.37;;;;;;;;;;5082774;28;20071;-85
2023/03/27 03:27:19;;;;;;;12.13;1.80;;;;;;;;;;5091858;28;20039;-85
2023/03/27 03:30:06;;;;;;;11.70;2.20;;;;;;;;;;5092894;28;20392;-85
2023/03/27 03:32:51;;;;;;;12.37;3.60;;;;;;;;;;5093176;28;20057;-87
2023/03/27 03:35:36;;;;;;;8.60;1.70;;;;;;;;;;5093257;28;20084;-85
2023/03/27 03:38:25;;;;;;;9.20;1.57;;;;;;;;;;5092366;28;20039;-85
2023/03/27 03:41:09;;;;;;;7.93;2.03;;;;;;;;;;5091822;28;20066;-85
2023/03/27 03:43:54;;;;;;;13.67;2.07;;;;;;;;;;5092611;28;20074;-85
2023/03/27 03:46:39;;;;;;;9.63;1.83;;;;;;;;;;5093214;28;20047;-86
2023/03/27 03:49:23;;;;;;;13.30;1.60;;;;;;;;;;5091977;28;20035;-85
2023/03/27 03:52:08;;;;;;;12.07;2.10;;;;;;;;;;5077272;28;20051;-85
2023/03/27 03:54:52;;;;;;;7.07;3.00;;;;;;;;;;5077490;28;20083;-87
2023/03/27 03:57:37;;;;;;;8.47;3.00;;;;;;;;;;5092242;28;20446;-85
2023/03/27 04:00:23;;;;;;;9.23;2.53;;;;;;;;;;5091967;28;20507;-85
2023/03/27 04:03:09;;;;;;;10.47;1.77;;;;;;;;;;5077324;28;20400;-86
2023/03/27 04:05:54;;;;;;;11.27;2.40;;;;;;;;;;5091325;28;20453;-87
2023/03/27 04:08:39;;;;;;;8.90;1.80;;;;;;;;;;5092819;28;20128;-85
2023/03/27 04:11:23;;;;;;;11.27;2.67;;;;;;;;;;5077384;28;20043;-85
2023/03/27 04:14:08;;;;;;;11.97;3.67;;;;;;;;;;5076899;28;20092;-85
2023/03/27 04:16:52;;;;;;;10.83;3.13;;;;;;;;;;5091652;28;20434;-85
2023/03/27 04:19:37;;;;;;;4.73;1.40;;;;;;;;;;5091421;28;20090;-85
2023/03/27 04:22:22;;;;;;;9.53;2.50;;;;;;;;;;5076989;28;20071;-85
2023/03/27 04:25:07;;;;;;;8.03;1.70;;;;;;;;;;5077271;28;20090;-85
2023/03/27 04:27:52;;;;;;;6.23;1.63;;;;;;;;;;5077109;28;20051;-85
2023/03/27 04:30:37;;;;;;;8.33;2.27;;;;;;;;;;5092297;28;20039;-85
2023/03/27 04:33:22;;;;;;;7.90;1.60;;;;;;;;;;5090941;28;20503;-86
2023/03/27 04:36:06;;;;;;;9.57;1.90;;;;;;;;;;5076402;28;20105;-85
2023/03/27 04:38:52;;;;;;;6.17;1.50;;;;;;;;;;5092089;28;20074;-85
2023/03/27 04:41:37;;;;;;;7.97;1.97;;;;;;;;;;5092297;28;20450;-85
2023/03/27 04:44:22;;;;;;;10.27;1.70;;;;;;;;;;5091655;28;20131;-85
2023/03/27 04:47:07;;;;;;;7.70;1.90;;;;;;;;;;5076176;28;20131;-85
2023/03/27 04:49:52;;;;;;;12.47;4.23;;;;;;;;;;5092100;28;20070;-85
2023/03/27 04:52:37;;;;;;;9.40;2.00;;;;;;;;;;5076570;28;20456;-85
2023/03/27 04:55:24;;;;;;;13.13;2.47;;;;;;;;;;5091429;28;20085;-85
2023/03/27 04:58:11;;;;;;;8.10;1.90;;;;;;;;;;5090352;28;20092;-85
2023/03/27 05:00:55;;;;;;;10.77;2.00;;;;;;;;;;5076727;28;20078;-85
2023/03/27 05:03:40;;;;;;;8.70;1.60;;;;;;;;;;5071595;28;20408;-86
2023/03/27 05:06:25;;;;;;;7.53;1.93;;;;;;;;;;5069918;28;20043;-85
2023/03/27 05:09:09;;;;;;;6.43;2.17;;;;;;;;;;5069890;28;20093;-86
2023/03/27 05:11:54;;;;;;;7.17;2.03;;;;;;;;;;5071485;28;20052;-85
2023/03/27 05:14:39;;;;;;;8.47;1.90;;;;;;;;;;5071358;28;20048;-85
2023/03/27 05:17:24;;;;;;;10.60;2.83;;;;;;;;;;5071020;28;20101;-86
2023/03/27 05:20:15;;;;;;;8.13;2.27;;;2.00;99.90;;;;;;5077642;28;20067;-85
2023/03/27 05:23:00;;;;;;;6.87;2.10;;;;;;;;;;5074555;28;20044;-86
2023/03/27 05:25:44;;;;;;;6.97;2.27;;;;;;;;;;5075218;28;20039;-87
2023/03/27 05:28:29;;;;;;;8.70;2.10;;;;;;;;;;5084360;28;20047;-86
2023/03/27 05:31:14;;;;;;;7.53;1.43;;;;;;;;;;5069838;28;20040;-86
2023/03/27 05:33:58;;;;;;;11.13;1.90;;;;;;;;;;5070038;28;20098;-87
2023/03/27 05:36:45;;;;;;;10.83;2.20;;;;;;;;;;5071967;28;20439;-87
2023/03/27 05:39:30;;;;;;;5.13;1.50;;;;;;;;;;5081439;28;20039;-87
2023/03/27 05:42:15;;;;;;;6.07;3.10;;;;;;;;;;5082070;28;20188;-86
2023/03/27 05:45:00;;;;;;;5.37;1.80;;;;;;;;;;5083978;28;20524;-86
2023/03/27 05:47:47;;;;;;;5.07;1.20;;;;;;;;;;5086495;28;20065;-86
2023/03/27 05:50:35;;;;;;;2.70;1.03;;;;;;;;;;5089300;28;20408;-86
2023/03/27 05:53:20;;;;;;;3.83;1.37;;;;;;;;;;5080742;28;20086;-86
2023/03/27 05:56:06;;;;;;;5.90;1.07;;;;;;;;;;5071012;28;20059;-85
2023/03/27 05:58:51;;;;;;;4.70;1.13;;;;;;;;;;5075855;28;20039;-86
2023/03/27 06:01:36;;;;;;;3.13;0.90;;;;;;;;;;5068074;28;20055;-85
2023/03/27 06:04:21;;;;;;;3.17;0.87;;;;;;;;;;5088246;28;20089;-86
2023/03/27 06:07:05;;;;;;;2.30;1.00;;;;;;;;;;5085439;28;20047;-85
2023/03/27 06:09:49;;;;;;;7.80;1.43;;;;;;;;;;5074298;28;20043;-87
2023/03/27 06:12:37;;;;;;;7.43;2.07;;;;;;;;;;5088552;28;20043;-85
2023/03/27 06:15:23;;;;;;;5.43;1.00;;;;;;;;;;5071805;28;20043;-86
2023/03/27 06:18:09;;;;;;;5.07;1.20;;;3.10;99.90;;;;;;5072791;28;20098;-84
2023/03/27 06:20:53;;;;;;;7.60;1.23;;;;;;;;;;5075421;28;20039;-86
2023/03/27 06:23:38;;;;;;;4.90;0.90;;;;;;;;;;5080297;28;20079;-86
2023/03/27 06:26:23;;;;;;;4.40;1.00;;;;;;;;;;5087466;28;20048;-85
2023/03/27 06:29:08;;;;;;;3.00;0.80;;;;;;;;;;5085623;28;20411;-85
2023/03/27 06:31:56;;;;;;;2.67;1.00;;;;;;;;;;5077908;28;20047;-85
2023/03/27 06:34:40;;;;;;;7.50;1.70;;;;;;;;;;5070233;28;20038;-86
2023/03/27 06:37:25;;;;;;;6.07;1.43;;;;;;;;;;5092463;28;20081;-85
2023/03/27 06:40:18;;;;;;;4.87;1.20;;;;;;;;;;5080801;28;20047;-85
2023/03/27 06:43:09;;;;;;;9.63;1.63;;;;;;;;;;5079304;28;20988;-85
2023/03/27 06:45:54;;;;;;;4.90;1.37;;;;;;;;;;5089301;28;20066;-85
2023/03/27 06:48:38;;;;;;;10.33;1.30;;;;;;;;;;5084435;28;20066;-86
2023/03/27 06:51:25;;;;;;;5.07;1.10;;;;;;;;;;5078998;28;20094;-85
2023/03/27 06:54:11;;;;;;;7.67;1.40;;;;;;;;;;5096148;28;20067;-85
2023/03/27 06:56:56;;;;;;;8.87;1.57;;;;;;;;;;5072935;28;20056;-88
2023/03/27 06:59:41;;;;;;;4.83;1.53;;;;;;;;;;5072312;28;20396;-85
2023/03/27 07:02:25;;;;;;;8.37;1.30;;;;;;;;;;5073299;28;20039;-85
2023/03/27 07:05:10;;;;;;;11.83;1.43;;;;;;;;;;5086661;28;20112;-84
2023/03/27 07:07:55;;;;;;;7.73;1.50;;;3.80;99.90;;;;;;5074534;28;20527;-83
2023/03/27 07:10:40;;;;;;;5.27;1.20;;;;;;;;;;5078621;28;20031;-82
2023/03/27 07:13:24;;;;;;;5.17;1.37;;;;;;;;;;5074398;28;20388;-82
2023/03/27 07:16:10;;;;;;;11.33;1.40;;;;;;;;;;5072484;28;20412;-82
2023/03/27 07:18:56;;;;;;;9.10;2.03;;;;;;;;;;5086950;28;20077;-83
2023/03/27 07:21:40;;;;;;;7.40;1.35;;;;;;;;;;5080485;28;20165;-83
2023/03/27 07:24:25;;;;;;;5.15;1.67;;;;;;;;;;5074612;28;20043;-83
2023/03/27 07:27:09;;;;;;;4.95;1.30;;;;;;;;;;5092460;28;20077;-85
2023/03/27 07:29:57;;;;;;;7.28;1.30;;;;;;;;;;5092598;28;20153;-86
2023/03/27 07:32:43;;;;;;;8.80;1.73;;;;;;;;;;5073534;28;20039;-85
2023/03/27 07:35:28;;;;;;;7.22;2.05;;;;;;;;;;5074739;28;20059;-86
2023/03/27 07:38:13;;;;;;;10.02;1.60;;;;;;;;;;5071990;28;20039;-85
2023/03/27 07:41:02;;;;;;;8.18;1.30;;;;;;;;;;5073151;28;20553;-85
2023/03/27 07:43:47;;;;;;;8.90;1.23;;;;;;;;;;5073937;28;20439;-85
2023/03/27 07:46:31;;;;;;;5.13;1.40;;;;;;;;;;5072306;28;20048;-85
2023/03/27 07:49:16;;;;;;;9.57;1.60;;;;;;;;;;5071827;28;20035;-85
2023/03/27 07:52:01;;;;;;;10.02;1.90;;;;;;;;;;5071882;28;20043;-85
2023/03/27 07:54:47;;;;;;;9.88;1.98;;;;;;;;;;5071262;28;20093;-85
2023/03/27 07:57:32;;;;;;;14.30;3.33;;;;;;;;;;5072439;28;20043;-87
2023/03/27 08:00:17;;;;;;;4.13;1.35;;;;;;;;;;5073368;28;20047;-87
2023/03/27 08:03:06;;;;;;;5.55;1.27;;;;;;;;;;5077449;28;20073;-85
2023/03/27 08:05:55;;;;;;;8.05;1.67;;;;;;;;;;5094924;28;20069;-87
2023/03/27 08:08:39;;;;;;;5.22;1.55;;;;;;;;;;5084370;28;20074;-86
2023/03/27 08:11:24;;;;;;;4.95;1.08;;;;;;;;;;5082323;28;20058;-87
2023/03/27 08:14:08;;;;;;;13.20;2.30;;;;;;;;;;5079221;28;20075;-86
2023/03/27 08:16:56;;;;;;;4.63;1.35;;;;;;;;;;5078162;28;20125;-88
2023/03/27 08:19:41;;;;;;;5.38;1.55;;;;;;;;;;5075429;28;20047;-86
2023/03/27 08:22:26;;;;;;;8.15;1.20;;;;;;;;;;5072329;28;20040;-85
2023/03/27 08:25:11;;;;;;;5.85;1.40;;;;;;;;;;5085878;28;20506;-85
2023/03/27 08:27:56;;;;;;;7.72;1.65;;;;;;;;;;5092507;28;20039;-86
2023/03/27 08:30:40;;;;;;;7.85;2.22;;;;;;;;;;5092738;28;20086;-85
2023/03/27 08:33:28;;;;;;;7.90;1.65;;;;;;;;;;5082649;28;20086;-85
2023/03/27 08:36:13;;;;;;;7.30;1.17;;;;;;;;;;5077392;28;20162;-87
2023/03/27 08:39:01;;;;;;;7.90;1.38;;;;;;;;;;5070857;28;20036;-85
2023/03/27 08:41:54;;;;;;;6.05;1.48;;;;;;;;;;5071385;28;20075;-85
2023/03/27 08:44:42;;;;;;;5.03;1.35;;;;;;;;;;5075524;28;20393;-88
2023/03/27 08:47:30;;;;;;;12.98;2.00;;;;;;;;;;5076781;28;20114;-84
2023/03/27 08:50:22;;;;;;;7.28;1.08;;;;;;;;;;5070642;28;20043;-85
2023/03/27 08:53:14;;;;;;;5.18;1.20;;;;;;;;;;5071864;28;20047;-84
2023/03/27 08:55:58;;;;;;;4.25;1.60;;;;;;;;;;5071268;28;20124;-84
2023/03/27 08:58:44;;;;;;;4.05;1.10;;;;;;;;;;5071117;28;20134;-84
2023/03/27 09:01:39;;;;;;;6.70;2.88;;;;;;;;;;5085029;28;20048;-85
2023/03/27 09:04:27;;;;;;;5.78;1.75;;;;;;;;;;5071501;28;20040;-85
2023/03/27 09:07:36;;;;;;;6.53;1.80;;;7.70;99.90;;;;;;5070524;28;20043;-84
2023/03/27 09:10:30;;;;;;;7.38;1.80;;;;;;;;;;5056367;28;20045;-84
2023/03/27 09:13:17;;;;;;;;;;;7.30;99.90;;;;;;5071935;28;20142;-85
2023/03/27 09:16:20;;;;;;;8.68;1.73;;;;;;;;;;5086052;28;20036;-84
2023/03/27 09:19:34;;;;;;;4.07;0.83;;;7.10;99.90;;;;;;5070372;28;20067;-84
2023/03/27 09:22:28;;;;;;;9.77;1.52;;;7.30;99.90;;;;;;5070489;28;20044;-84
2023/03/27 09:25:46;;;;;;;7.55;1.58;;;7.50;99.90;;;;;;5073538;28;20446;-85
2023/03/27 09:28:36;;;;;;;6.00;1.20;;;7.60;99.90;;;;;;5091067;28;20070;-84
2023/03/27 09:31:34;;;;;;;9.57;1.30;;;7.80;99.90;;;;;;5091586;28;20081;-84
2023/03/27 09:34:27;;;;;;;3.85;1.38;;;;;;;;;;5091561;28;20437;-84
2023/03/27 09:37:15;;;;;;;6.60;1.40;;;7.90;99.90;;;;;;5090286;28;20054;-83
2023/03/27 09:39:59;;;;;;;4.28;1.30;;;;;;;;;;5087329;28;20604;-84
2023/03/27 09:42:45;;;;;;;2.58;0.85;;;;;;;;;;5071866;28;20072;-88
2023/03/27 09:45:30;;;;;;;5.28;1.13;;;;;;;;;;5083373;28;20074;-84
2023/03/27 09:48:28;;;;;;;4.88;1.15;;;;;;;;;;5080107;28;20044;-84
2023/03/27 09:51:36;;;;;;;5.53;1.08;;;8.30;99.90;;;;;;5071167;28;20082;-84
2023/03/27 09:54:23;;;;;;;4.70;0.90;;;8.10;99.90;;;;;;5078996;28;20063;-84
2023/03/27 09:57:11;;;;;;;7.30;1.20;;;8.10;99.90;;;;;;5079616;28;20079;-84
2023/03/27 10:00:23;;;;;;;4.72;0.85;;;8.30;99.90;;;;;;5089480;28;20035;-85
2023/03/27 10:03:17;;;;;;;5.28;1.05;;;8.30;99.90;;;;;;5075860;28;20035;-84
2023/03/27 10:06:05;;;;;;;6.25;0.85;;;;;;;;;;5071732;28;20047;-84
2023/03/27 10:08:50;;;;;;;4.75;1.15;;;;;;;;;;5084833;28;20098;-84
2023/03/27 10:11:35;;;;;;;4.05;0.88;;;;;;;;;;5074379;28;20039;-86
2023/03/27 10:14:20;;;;;;;3.38;0.88;;;;;;;;;;5082725;28;20104;-88
2023/03/27 10:17:05;;;;;;;5.85;2.47;;;;;;;;;;5071345;28;20552;-86
2023/03/27 10:19:53;;;;;;;5.00;1.10;;;9.00;99.90;;;;;;5084724;28;20062;-86
2023/03/27 10:22:49;;;;;;;8.27;1.27;;;8.80;99.90;;;;;;5085866;28;20047;-85
2023/03/27 10:25:40;;;;;;;6.07;1.30;;;;;;;;;;5079530;28;20039;-86
2023/03/27 10:28:35;;;;;;;5.50;1.38;;;8.00;99.90;;;;;;5094638;28;20065;-84
2023/03/27 10:31:27;;;;;;;8.20;1.52;;;;;;;;;;5087278;28;20530;-84
2023/03/27 10:34:27;;;;;;;5.43;1.10;;;8.00;99.90;;;;;;5082493;28;20052;-84
2023/03/27 10:37:27;;;;;;;6.60;1.23;;;8.40;99.90;;;;;;5085229;28;20077;-84
2023/03/27 10:40:17;;;;;;;3.65;0.80;;;8.70;99.90;;;;;;5073476;28;20067;-84
2023/03/27 10:43:07;;;;;;;3.70;1.00;;;8.90;99.90;;;;;;5084466;28;20202;-84
2023/03/27 10:45:57;;;;;;;8.13;0.90;;;8.90;99.90;;;;;;5087352;28;20035;-83
2023/03/27 10:48:46;;;;;;;9.00;1.38;;;;;;;;;;5074037;28;20044;-83
2023/03/27 10:51:31;;;;;;;2.95;1.17;;;;;;;;;;5074262;28;20060;-83
2023/03/27 10:54:27;;;;;;;3.47;0.88;;;8.90;99.90;;;;;;5075073;28;20086;-84
2023/03/27 10:57:22;;;;;;;2.85;0.95;;;;;;;;;;5079017;28;20043;-84
2023/03/27 11:00:25;;;;;;;6.47;1.20;;;9.30;99.90;;;;;;5073446;28;20044;-83
2023/03/27 11:03:13;;;;;;;6.90;2.03;;;;;;;;;;5094042;28;20669;-84
2023/03/27 11:06:00;;;;;;;4.35;1.05;;;8.70;99.20;;;;;;5085197;28;20085;-84
2023/03/27 11:09:04;;;;;;;8.70;1.15;;;8.40;98.60;;;;;;5075748;28;20131;-85
2023/03/27 11:11:51;;;;;;;7.55;1.13;;;;;;;;;;5091915;28;20063;-84
2023/03/27 11:14:48;;;;;;;4.90;0.82;;;;;;;;;;5075157;28;20043;-84
2023/03/27 11:17:41;;;;;;;4.53;1.13;;;8.60;97.90;;;;;;5080430;28;20488;-84
2023/03/27 11:20:32;;;;;;;4.97;1.10;;;;;;;;;;5072556;28;20562;-83
2023/03/27 11:23:29;;;;;;;4.55;0.88;;;;;;;;;;5071846;28;20034;-83
2023/03/27 11:26:16;;;;;;;3.40;1.02;;;9.20;97.00;;;;;;5085270;28;20157;-83
2023/03/27 11:29:23;;;;;;;3.83;0.95;;;9.00;96.50;;;;;;5096906;28;20036;-84
2023/03/27 11:32:18;;;;;;;8.00;1.33;;;;;;;;;;5091435;28;20035;-84
2023/03/27 11:35:30;;;;;;;8.10;2.65;;;8.90;97.10;;;;;;5086218;28;20093;-86
2023/03/27 11:38:31;;;;;;;3.13;1.10;;;9.20;96.80;;;;;;5092902;28;20043;-84
2023/03/27 11:41:16;;;;;;;3.60;0.90;;;;;;;;;;5081084;28;20043;-81
2023/03/27 11:44:00;;;;;;;2.08;0.90;;;;;;;;;;5077591;28;20067;-82
2023/03/27 11:47:17;;;;;;;2.25;0.90;;;7.90;98.80;;;;;;5083258;28;20349;-81
2023/03/27 11:50:27;;;;;;;6.20;1.27;;;7.30;99.90;;;;;;5084676;28;20031;-81
2023/03/27 11:53:26;;;;;;;7.85;1.20;;;6.90;99.90;;;;;;5074121;28;20495;-83
2023/03/27 11:56:17;;;;;;;10.05;1.85;;;;;;;;;;5083320;28;20051;-83
2023/03/27 11:59:39;;;;;;;7.40;1.00;;;6.80;99.90;;;;;;5069143;28;20479;-84
2023/03/27 12:02:41;;;;;;;6.25;1.30;;;7.00;99.90;;;;;;5070868;28;20050;-83
2023/03/27 12:06:13;;;;;;;3.15;0.80;;;7.30;99.90;;;;;;5070847;28;20538;-85
2023/03/27 12:08:58;;;;;;;6.40;1.58;;;;;;;;;;5005427;28;20155;-86
2023/03/27 12:11:48;;;;;;;5.78;1.20;;;7.90;99.90;;;;;;4984051;28;20057;-84
2023/03/27 12:14:46;;;;;;;5.10;1.88;;;8.20;99.90;;;;;;5067747;28;20043;-84
2023/03/27 12:17:34;;;;;;;7.93;1.80;;;;;;;;;;5073555;28;20519;-83
2023/03/27 12:20:36;;;;;;;5.93;1.38;;;8.60;99.90;;;;;;5069021;28;20479;-83
2023/03/27 12:23:45;;;;;;;9.85;1.80;;;8.80;99.90;;;;;;5069822;28;20035;-84
2023/03/27 12:26:46;;;;;;;3.80;1.10;;;;;;;;;;5087613;28;20042;-83
2023/03/27 12:29:40;;;;;;;7.53;1.52;;;;;;;;;;5087008;28;20074;-83
2023/03/27 12:32:43;;;;;;;;;;;9.50;95.20;;;;;;5084395;28;20031;-84
2023/03/27 12:35:31;;;;;;;4.97;1.25;;;;;;;;;;5090090;28;20459;-82
2023/03/27 12:38:21;;;;;;;6.57;1.40;;;;;;;;;;5089629;28;20086;-83
2023/03/27 12:41:12;;;;;;;5.57;1.02;;;;;;;;;;5078410;28;20090;-83
2023/03/27 12:43:58;;;;;;;5.47;1.15;;;;;;;;;;5072672;28;20036;-84
2023/03/27 12:46:43;;;;;;;6.80;1.30;;;;;;;;;;5071230;28;20110;-84
2023/03/27 12:49:27;;;;;;;4.40;1.20;;;;;;;;;;5073090;28;20478;-83
2023/03/27 12:52:12;;;;;;;8.52;2.08;;;;;;;;;;5079892;28;20035;-83
2023/03/27 12:55:12;;;;;;;6.88;1.60;;;;;;;;;;5075888;28;20181;-83
2023/03/27 12:57:58;;;;;;;6.85;2.47;;;;;;;;;;5077217;28;20502;-85
2023/03/27 13:00:58;;;;;;;5.53;1.45;;;9.70;96.00;;;;;;5084686;28;20073;-83
2023/03/27 13:04:11;;;;;;;4.15;0.90;;;9.20;96.30;;;;;;5075169;28;20110;-83
2023/03/27 13:07:04;;;;;;;5.40;0.90;;;;;;;;;;5094325;28;20514;-83
2023/03/27 13:10:26;;;;;;;4.00;1.20;;;11.80;96.50;;;;;;5081490;28;20066;-85
2023/03/27 13:16:23;;;;;;;5.95;1.00;;;10.30;94.10;;;;;;5084351;28;20458;-82
2023/03/27 13:19:17;;;;;;;6.22;1.13;;;;;;;;;;5052104;28;20059;-83
2023/03/27 13:22:05;;;;;;;3.97;1.33;;;;;;;;;;5048575;28;20041;-83
2023/03/27 13:25:23;;;;;;;5.63;1.60;;;9.60;96.90;;;;;;5060439;28;20120;-83
2023/03/27 13:28:17;;;;;;;5.60;1.10;;;;;;;;;;5055966;28;20040;-84
2023/03/27 13:31:04;;;;;;;;;;;9.60;95.50;;;;;;5063508;28;20397;-82
2023/03/27 13:34:10;;;;;;;5.57;1.10;;;9.60;97.70;;;;;;5051243;28;19962;-82
2023/03/27 13:37:06;;;;;;;8.88;1.95;;;;;;;;;;5062121;28;20401;-82
2023/03/27 13:39:54;;;;;;;5.60;1.40;;;;;;;;;;5051593;28;20094;-82
2023/03/27 13:42:49;;;;;;;4.47;1.38;;;9.80;97.60;;;;;;5059499;28;20448;-82
2023/03/27 13:45:51;;;;;;;7.85;1.50;;;10.10;97.00;;;;;;5061883;28;20036;-82
2023/03/27 13:49:16;;;;;;;5.13;1.73;;;10.00;95.70;;;;;;5054763;28;20044;-82
2023/03/27 13:52:01;;;;;;;6.65;1.50;;;;;;;;;;5045810;28;20341;-83
2023/03/27 13:54:46;;;;;;;8.23;1.60;;;;;;;;;;5060299;28;20070;-82
2023/03/27 13:57:58;;;;;;;6.82;1.60;;;8.70;97.10;;;;;;5060005;28;20059;-84
2023/03/27 14:00:43;;;;;;;5.70;1.80;;;;;;;;;;5060178;28;20595;-83
2023/03/27 14:03:34;;;;;;;9.60;1.60;;;;;;;;;;5060552;28;20035;-83
2023/03/27 14:06:37;;;;;;;7.32;1.20;;;7.30;99.60;;;;;;5058993;28;20052;-83
2023/03/27 14:09:35;;;;;;;6.10;1.40;;;7.10;99.90;;;;;;5061984;28;20067;-83
2023/03/27 14:12:50;;;;;;;10.10;1.58;;;7.30;99.90;;;;;;5059279;28;20117;-83
2023/03/27 14:16:13;;;;;;;10.63;1.75;;;7.50;99.90;;;;;;5051881;28;20148;-82
2023/03/27 14:19:17;;;;;;;10.15;1.40;;;7.70;99.90;;;;;;5025017;28;20390;-83
2023/03/27 14:22:09;;;;;;;10.38;1.35;;;7.70;99.90;;;;;;5062856;28;20583;-82
2023/03/27 14:24:59;;;;;;;9.65;1.55;;;7.50;99.90;;;;;;5065349;28;20043;-82
2023/03/27 14:27:45;;;;;;;4.03;1.30;;;;;;;;;;5055574;28;20044;-83
2023/03/27 14:30:33;;;;;;;8.80;2.00;;;;;;;;;;5052710;28;20035;-82
2023/03/27 14:33:18;;;;;;;7.22;1.15;;;;;;;;;;5048745;28;20500;-84
2023/03/27 14:36:04;;;;;;;7.70;1.48;;;7.30;99.90;;;;;;5038001;28;20052;-82
2023/03/27 14:38:49;;;;;;;5.90;1.25;;;;;;;;;;5037943;28;20039;-82
2023/03/27 14:41:34;;;;;;;9.52;2.20;;;;;;;;;;5038745;28;20067;-82
2023/03/27 14:44:20;;;;;;;5.82;1.10;;;;;;;;;;5038179;28;20067;-84
2023/03/27 14:47:10;;;;;;;9.20;1.63;;;7.80;98.30;;;;;;5041303;28;20059;-82
2023/03/27 14:50:00;;;;;;;8.25;1.20;;;7.90;98.40;;;;;;5037459;28;20155;-82
2023/03/27 14:52:44;;;;;;;9.25;1.52;;;;;;;;;;5034478;28;20047;-83
2023/03/27 14:55:33;;;;;;;4.82;1.05;;;7.90;97.50;;;;;;5039555;28;20421;-83
2023/03/27 14:58:18;;;;;;;4.43;1.50;;;7.80;97.40;;;;;;5041215;28;20044;-84
2023/03/27 15:01:04;;;;;;;5.10;1.40;;;7.70;96.90;;;;;;5033761;28;20044;-81
2023/03/27 15:03:50;;;;;;;5.68;0.90;;;;;;;;;;5034081;28;20060;-83
2023/03/27 15:06:36;;;;;;;3.72;1.58;;;;;;;;;;5032284;28;20060;-83
2023/03/27 15:09:22;;;;;;;3.30;0.90;;;;;;;;;;5033519;28;20523;-82
2023/03/27 15:12:09;;;;;;;7.82;1.17;;;7.30;96.30;;;;;;5033622;28;20052;-83
2023/03/27 15:14:58;;;;;;;4.95;1.00;;;;;;;;;;5038504;28;20064;-84
2023/03/27 15:17:45;;;;;;;11.27;3.17;;;;;;;;;;5044719;28;20064;-82
2023/03/27 15:20:30;;;;;;;10.00;1.50;;;;;;;;;;5045320;28;20032;-83
2023/03/27 15:23:28;;;;;;;5.15;1.30;;;;;;;;;;5044420;28;20056;-85
2023/03/27 15:26:20;;;;;;;5.97;0.82;;;7.40;96.50;;;;;;5051726;28;20040;-83
2023/03/27 15:29:31;;;;;;;3.75;1.23;;;7.30;95.90;;;;;;5035057;28;20588;-84
2023/03/27 15:32:20;;;;;;;4.95;1.35;;;7.10;96.70;;;;;;5033817;28;20539;-83
2023/03/27 15:35:05;;;;;;;4.32;1.08;;;;;;;;;;5042576;28;20534;-84
2023/03/27 15:37:50;;;;;;;7.70;1.40;;;;;;;;;;5046223;28;20102;-84
2023/03/27 15:40:43;;;;;;;5.78;1.38;;;7.00;97.10;;;;;;5037167;28;20072;-84
2023/03/27 15:43:28;;;;;;;3.58;1.15;;;6.90;96.50;;;;;;5040651;28;20036;-84
2023/03/27 15:46:18;;;;;;;3.50;0.90;;;6.80;95.80;;;;;;5038161;28;20036;-84
2023/03/27 15:49:29;;;;;;;4.13;1.23;;;6.70;95.70;;;;;;5045151;28;20119;-86
2023/03/27 15:52:31;;;;;;;6.63;1.05;;;6.70;96.00;;;;;;5048782;28;20124;-86
2023/03/27 15:55:35;;;;;;;7.43;1.10;;;;;;;;;;5033590;28;20044;-84
2023/03/27 15:58:31;;;;;;;6.90;1.90;;;6.80;96.80;;;;;;5034365;28;20095;-84
2023/03/27 16:01:18;;;;;;;6.28;2.35;;;;;;;;;;5045245;28;20079;-84
2023/03/27 16:04:07;;;;;;;5.32;1.23;;;;;;;;;;5048319;28;20536;-84
2023/03/27 16:07:02;;;;;;;3.63;0.80;;;6.70;98.00;;;;;;5035170;28;20485;-84
2023/03/27 16:09:51;;;;;;;6.70;0.95;;;6.40;98.60;;;;;;5040853;28;20086;-84
2023/03/27 16:12:38;;;;;;;6.72;1.00;;;;;;;;;;5039982;28;20429;-84
2023/03/27 16:15:26;;;;;;;11.43;2.15;;;;;;;;;;5039330;28;20064;-84
2023/03/27 16:18:23;;;;;;;5.05;1.63;;;5.80;99.90;;;;;;5062888;28;20178;-84
2023/03/27 16:21:14;;;;;;;6.57;1.10;;;5.70;99.90;;;;;;5049362;28;20059;-84
2023/03/27 16:23:59;;;;;;;3.60;0.90;;;;;;;;;;5041070;28;20043;-83
2023/03/27 16:26:44;;;;;;;2.63;0.65;;;;;;;;;;5050215;28;20059;-84
2023/03/27 16:29:28;;;;;;;4.95;0.90;;;;;;;;;;5035804;28;20091;-83